Madisonville, KY

1:57 PM CDT on May 29, 2017 (GMT -0500)
Madisonville

Weather History for K2I0 - March, 2013

Change the Weather History Date:

Friday, March 1, 2013

  Actual Average (KOWB) Record (KOWB)
Temperature  
Mean Temperature 36 °F -  
Max Temperature 40 °F 53 °F 75 °F (1976)
Min Temperature 33 °F 30 °F 10 °F (1960)
Degree Days  
Heating Degree Days 28    
Moisture  
Dew Point 34 °F    
Average Humidity 96    
Maximum Humidity 100    
Minimum Humidity 83    
Precipitation  
Precipitation 0.05 in - - ()
Sea Level Pressure  
Sea Level Pressure 30.05 in    
Wind  
Wind Speed 6 mph (NW)    
Max Wind Speed 14 mph    
Max Gust Speed 16 mph    
Visibility 5 miles    
Events Rain , Snow    
Averages and records for this station are not official NWS values.
T = Trace of Precipitation, MM = Missing Value Source: NWS Daily Summary

Daily Weather History Graph

Daily Weather History Graph

Search for Another Location

Airport or City:

Trip Planner

Search our weather history database for the weather conditions in past years. The results will help you decide how hot, cold, wet, or windy it might be!

Date:

Astronomy

Mar. 01, 2013 Rise Set
Actual Time 6:20 AM CST 5:43 PM CST
Civil Twilight 5:54 AM CST 6:10 PM CST
Nautical Twilight 5:24 AM CST 6:40 PM CST
Astronomical Twilight 4:53 AM CST 7:10 PM CST
Moon 10:09 PM CST (3/1) 8:13 AM CST (3/1)
Length of Visible Light 12h 15m
Length of Day
11h 23m
Waning Gibbous, 83% of the Moon is Illuminated
Mar 1
Waning Gibbous
Mar 4
Last Quarter
Mar 11
New
Mar 19
First Quarter
Mar 27
Full

Hourly Weather History & Observations

Time (CST) Temp. Windchill Dew Point Humidity Pressure Visibility Wind Dir Wind Speed Gust Speed Precip Events Conditions
12:15 AM 34.9 °F 29.0 °F 34.2 °F 97% 30.04 in 4.0 mi WNW 6.9 mph - N/A Snow Light Snow
12:35 AM 34.9 °F 29.9 °F 34.0 °F 97% 30.04 in 4.0 mi NW 5.8 mph - N/A Snow Light Snow
12:55 AM 34.7 °F 28.8 °F 33.8 °F 97% 30.04 in 3.0 mi NW 6.9 mph - N/A Snow Light Snow
1:15 AM 34.7 °F 29.6 °F 33.8 °F 97% 30.04 in 4.0 mi WNW 5.8 mph - N/A Snow Light Snow
1:35 AM 34.7 °F 28.1 °F 33.8 °F 97% 30.03 in 4.0 mi NW 8.1 mph - N/A Snow Light Snow
1:55 AM 34.7 °F 28.8 °F 33.8 °F 97% 30.03 in 2.5 mi WNW 6.9 mph - N/A Snow Light Snow
2:15 AM 34.7 °F 28.1 °F 34.0 °F 97% 30.02 in 4.0 mi WNW 8.1 mph - N/A Snow Light Snow
2:35 AM 34.7 °F 30.6 °F 33.8 °F 97% 30.02 in 3.0 mi WNW 4.6 mph - N/A Snow Light Snow
2:55 AM 34.3 °F 29.2 °F 33.8 °F 98% 30.02 in 2.5 mi WNW 5.8 mph - N/A Snow Light Snow
3:15 AM 34.0 °F 28.8 °F 33.8 °F 99% 30.03 in 1.5 mi WNW 5.8 mph - N/A Snow Light Snow
3:35 AM 34.0 °F 29.8 °F 34.0 °F 100% 30.03 in 1.8 mi WNW 4.6 mph - N/A Snow Light Snow
3:55 AM 33.8 °F 29.6 °F 33.8 °F 100% 30.03 in 1.2 mi West 4.6 mph - 0.01 in Snow Light Snow
4:15 AM 33.8 °F 29.6 °F 33.8 °F 100% 30.03 in 1.2 mi West 4.6 mph - N/A Snow Light Snow
4:35 AM 33.8 °F 29.6 °F 33.8 °F 100% 30.03 in 1.5 mi WNW 4.6 mph - N/A Snow Light Snow
4:55 AM 33.8 °F 29.6 °F 33.8 °F 100% 30.02 in 1.8 mi WNW 4.6 mph - N/A Snow Light Snow
5:15 AM 33.8 °F 29.6 °F 33.8 °F 100% 30.02 in 2.0 mi WNW 4.6 mph - N/A Snow Light Snow
5:35 AM 33.8 °F 30.8 °F 33.8 °F 100% 30.02 in 2.0 mi WNW 3.5 mph - N/A Snow Light Snow
5:55 AM 33.8 °F 30.8 °F 33.8 °F 100% 30.03 in 2.0 mi WNW 3.5 mph - N/A Snow Light Snow
6:15 AM 33.8 °F 30.8 °F 33.8 °F 100% 30.03 in 2.0 mi West 3.5 mph - N/A Snow Light Snow
6:35 AM 33.8 °F 30.8 °F 33.8 °F 100% 30.04 in 1.0 mi West 3.5 mph - N/A Snow Light Snow
6:55 AM 33.8 °F 30.8 °F 33.8 °F 100% 30.04 in 0.8 mi West 3.5 mph - N/A Snow Light Snow
7:15 AM 33.8 °F 30.8 °F 33.8 °F 100% 30.04 in 1.0 mi West 3.5 mph - 0.01 in Snow Light Snow
7:35 AM 33.8 °F 30.8 °F 33.8 °F 100% 30.05 in 1.0 mi WNW 3.5 mph - 0.01 in Snow Light Snow
7:55 AM 33.8 °F 29.6 °F 33.8 °F 100% 30.06 in 1.0 mi WNW 4.6 mph - 0.02 in Snow Light Snow
8:15 AM 34.0 °F 29.8 °F 34.0 °F 100% 30.06 in 1.2 mi WNW 4.6 mph - N/A Snow Light Snow
8:35 AM 34.3 °F 29.2 °F 34.3 °F 100% 30.06 in 1.5 mi NW 5.8 mph - N/A Snow Light Snow
8:55 AM 34.9 °F 30.8 °F 34.7 °F 99% 30.06 in 2.0 mi NW 4.6 mph - N/A Snow Light Snow
9:15 AM 35.2 °F 29.5 °F 34.7 °F 98% 30.06 in 3.0 mi NW 6.9 mph - N/A Snow Light Snow
9:35 AM 35.6 °F 29.9 °F 34.7 °F 97% 30.06 in 3.0 mi NW 6.9 mph - N/A Snow Light Snow
9:55 AM 36.0 °F 30.3 °F 35.1 °F 97% 30.06 in 4.0 mi NW 6.9 mph - N/A Snow Light Snow
10:15 AM 36.5 °F 31.0 °F 35.4 °F 96% 30.06 in 5.0 mi NW 6.9 mph - N/A Rain Light Rain
10:35 AM 36.7 °F 31.2 °F 35.6 °F 96% 30.06 in 7.0 mi NNW 6.9 mph - N/A Rain Rain
10:55 AM 37.2 °F 31.9 °F 35.6 °F 94% 30.06 in 7.0 mi NNW 6.9 mph - N/A Rain Light Rain
11:15 AM 37.0 °F 32.4 °F 35.6 °F 95% 30.06 in 7.0 mi NNW 5.8 mph - N/A Rain Light Rain
11:35 AM 36.3 °F 32.5 °F 35.2 °F 96% 30.06 in 3.0 mi NNW 4.6 mph - 0.01 in Rain Light Rain
11:55 AM 37.9 °F 32.1 °F 36.7 °F 95% 30.06 in 7.0 mi North 8.1 mph - 0.01 in Rain Rain
12:15 PM 38.5 °F 32.7 °F 35.6 °F 89% 30.06 in 10.0 mi NW 8.1 mph - N/A   Overcast
12:35 PM 36.9 °F 32.2 °F 35.6 °F 95% 30.05 in 5.0 mi North 5.8 mph - N/A Rain Light Rain
12:55 PM 38.5 °F 33.4 °F 36.5 °F 93% 30.04 in 10.0 mi North 6.9 mph - N/A Rain Light Rain
1:15 PM 38.7 °F 33.6 °F 35.8 °F 89% 30.04 in 10.0 mi North 6.9 mph - N/A   Overcast
1:35 PM 40.1 °F 34.7 °F 36.5 °F 87% 30.03 in 10.0 mi North 8.1 mph - N/A   Overcast
1:55 PM 39.9 °F 32.1 °F 35.2 °F 83% 30.03 in 10.0 mi NNE 13.8 mph - N/A   Overcast
2:15 PM 38.3 °F 31.9 °F 35.2 °F 89% 30.03 in 10.0 mi North 9.2 mph - N/A Rain Light Rain
2:35 PM 38.5 °F 32.7 °F 34.9 °F 87% 30.03 in 10.0 mi NNE 8.1 mph - N/A   Overcast
2:55 PM 39.0 °F 36.8 °F 35.2 °F 86% 30.03 in 10.0 mi North 3.5 mph - N/A   Overcast
3:15 PM 37.4 °F 31.4 °F 34.5 °F 89% 30.04 in 7.0 mi NNW 8.1 mph - N/A Snow Light Snow
3:35 PM 37.9 °F 33.5 °F 35.6 °F 91% 30.04 in 10.0 mi North 5.8 mph - N/A Rain Light Rain
3:55 PM 37.6 °F 29.6 °F 35.2 °F 91% 30.04 in 10.0 mi North 12.7 mph 16.1 mph N/A Rain Light Rain
4:15 PM 34.9 °F 29.0 °F 34.7 °F 99% 30.05 in 2.5 mi North 6.9 mph - 0.01 in Snow Light Snow
4:35 PM 36.3 °F 30.8 °F 34.9 °F 95% 30.05 in 10.0 mi North 6.9 mph - 0.01 in Rain Light Rain
4:55 PM 36.5 °F 32.7 °F 34.9 °F 94% 30.05 in 10.0 mi NNW 4.6 mph - 0.01 in Rain Rain
5:15 PM 36.5 °F 28.7 °F 35.1 °F 95% 30.06 in 10.0 mi NNW 11.5 mph - N/A   Light Drizzle
5:35 PM 35.6 °F 29.9 °F 34.5 °F 96% 30.06 in 10.0 mi NNW 6.9 mph - N/A Rain Light Rain
5:55 PM 35.6 °F 30.7 °F 34.3 °F 95% 30.06 in 10.0 mi NNW 5.8 mph - N/A   Drizzle
6:15 PM 35.6 °F 31.7 °F 34.7 °F 97% 30.07 in 10.0 mi NNW 4.6 mph - N/A   Light Drizzle
6:35 PM 35.6 °F 29.9 °F 34.7 °F 97% 30.07 in 10.0 mi NNW 6.9 mph - N/A   Light Drizzle
6:55 PM 35.6 °F 29.9 °F 34.2 °F 94% 30.07 in 10.0 mi NNW 6.9 mph - N/A   Overcast
7:15 PM 35.6 °F 28.6 °F 33.6 °F 92% 30.08 in 10.0 mi North 9.2 mph - N/A   Overcast
7:35 PM 34.7 °F 27.5 °F 32.9 °F 93% 30.08 in 5.0 mi NNW 9.2 mph - N/A Snow Light Snow
7:55 PM 34.5 °F 28.6 °F 33.1 °F 94% 30.08 in 10.0 mi NNW 6.9 mph - N/A   Overcast
8:15 PM 34.3 °F 27.0 °F 33.1 °F 95% 30.08 in 4.0 mi North 9.2 mph - N/A Snow Light Snow
8:35 PM 34.3 °F 30.2 °F 33.1 °F 95% 30.09 in 10.0 mi NNW 4.6 mph - N/A   Overcast
8:55 PM 34.3 °F 29.2 °F 33.4 °F 97% 30.09 in 7.0 mi NNW 5.8 mph - N/A   Overcast
9:15 PM 34.2 °F 29.0 °F 33.4 °F 97% 30.09 in 3.0 mi NW 5.8 mph - N/A Snow Light Snow
9:35 PM 34.2 °F 29.0 °F 33.1 °F 96% 30.09 in 4.0 mi NNW 5.8 mph - N/A Snow Light Snow
9:55 PM 33.8 °F 28.6 °F 33.1 °F 97% 30.09 in 5.0 mi NNW 5.8 mph - N/A Snow Light Snow
10:15 PM 33.8 °F 27.7 °F 32.9 °F 96% 30.09 in 5.0 mi NW 6.9 mph - N/A Snow Light Snow
10:35 PM 33.6 °F 27.5 °F 32.7 °F 96% 30.08 in 7.0 mi NNW 6.9 mph - N/A Snow Light Snow
10:55 PM 33.4 °F 28.1 °F 32.5 °F 96% 30.08 in 7.0 mi NW 5.8 mph - N/A   Overcast
11:15 PM 33.4 °F 28.1 °F 32.5 °F 96% 30.08 in 5.0 mi NW 5.8 mph - N/A Snow Light Snow
11:35 PM 33.4 °F 26.6 °F 32.5 °F 96% 30.08 in 7.0 mi NW 8.1 mph - N/A Snow Light Snow
11:55 PM 33.3 °F 27.9 °F 32.4 °F 96% 30.08 in 5.0 mi NW 5.8 mph - N/A Snow Light Snow